CNTOR53 EGVN-EGVN
Flight info
| Callsign | CNTOR53 |
|---|---|
| Flight time | 1h 22m |
| Altitude | 14000 |
| Route | OPR LFA4 LFA9 LPL LF8 LFA7 GST BZ |
| Aircraft | A400/M-VGDW/C |
Departure
| Time | 2026-05-04 21:43 |
|---|---|
| Airport | RAF Brize Norton (EGVN) |
Arrival
| Time | 2026-05-04 23:06 |
|---|---|
| Airport | RAF Brize Norton (EGVN) |
| Time | Latitude | Longitude | Altitude | Speed | Heading |
|---|---|---|---|---|---|
| 2026-05-04 21:35 | 51.75606 | -1.57335 | 276 ft | 0 kts | 289° |
| 2026-05-04 21:40 | 51.75638 | -1.57420 | 276 ft | 18 kts | 316° |
| 2026-05-04 21:40 | 51.75690 | -1.57446 | 273 ft | 4 kts | 12° |
| 2026-05-04 21:41 | 51.75803 | -1.57326 | 273 ft | 23 kts | 30° |
| 2026-05-04 21:41 | 51.75865 | -1.57165 | 273 ft | 17 kts | 95° |
| 2026-05-04 21:41 | 51.75816 | -1.57017 | 273 ft | 15 kts | 130° |
| 2026-05-04 21:41 | 51.75736 | -1.56924 | 274 ft | 21 kts | 146° |
| 2026-05-04 21:42 | 51.75493 | -1.56764 | 273 ft | 38 kts | 156° |
| 2026-05-04 21:42 | 51.75291 | -1.56737 | 272 ft | 25 kts | 227° |
| 2026-05-04 21:42 | 51.75256 | -1.56882 | 271 ft | 6 kts | 248° |
| 2026-05-04 21:42 | 51.75254 | -1.56890 | 271 ft | 0 kts | 249° |
| 2026-05-04 21:43 | 51.75200 | -1.57274 | 273 ft | 88 kts | 254° |
| 2026-05-04 21:43 | 51.74932 | -1.58753 | 363 ft | 175 kts | 255° |
| 2026-05-04 21:43 | 51.74543 | -1.60799 | 904 ft | 203 kts | 252° |
| 2026-05-04 21:44 | 51.73726 | -1.62817 | 1313 ft | 238 kts | 230° |
| 2026-05-04 21:44 | 51.72919 | -1.65412 | 1466 ft | 280 kts | 262° |
| 2026-05-04 21:44 | 51.72850 | -1.68599 | 1569 ft | 286 kts | 269° |
| 2026-05-04 21:44 | 51.72734 | -1.71904 | 1667 ft | 309 kts | 267° |
| 2026-05-04 21:45 | 51.72611 | -1.75478 | 1772 ft | 325 kts | 268° |
| 2026-05-04 21:45 | 51.72602 | -1.79129 | 1885 ft | 330 kts | 281° |
| 2026-05-04 21:45 | 51.73604 | -1.82419 | 2147 ft | 322 kts | 309° |
| 2026-05-04 21:45 | 51.74935 | -1.84976 | 2276 ft | 277 kts | 313° |
| 2026-05-04 21:46 | 51.76135 | -1.87189 | 2230 ft | 247 kts | 314° |
| 2026-05-04 21:46 | 51.77217 | -1.89164 | 2161 ft | 223 kts | 314° |
| 2026-05-04 21:46 | 51.78223 | -1.90970 | 2075 ft | 234 kts | 315° |
| 2026-05-04 21:46 | 51.79474 | -1.93056 | 2105 ft | 279 kts | 319° |
| 2026-05-04 21:47 | 51.81043 | -1.95156 | 2141 ft | 301 kts | 323° |
| 2026-05-04 21:47 | 51.82750 | -1.97157 | 2177 ft | 307 kts | 327° |
| 2026-05-04 21:47 | 51.84524 | -1.98974 | 2194 ft | 302 kts | 331° |
| 2026-05-04 21:47 | 51.86355 | -2.00508 | 2130 ft | 292 kts | 339° |
| 2026-05-04 21:48 | 51.88288 | -2.01455 | 1845 ft | 289 kts | 348° |
| 2026-05-04 21:48 | 51.90248 | -2.02179 | 1502 ft | 289 kts | 349° |
| 2026-05-04 21:48 | 51.92197 | -2.02864 | 1288 ft | 283 kts | 348° |
| 2026-05-04 21:48 | 51.93928 | -2.04077 | 1347 ft | 266 kts | 306° |
| 2026-05-04 21:49 | 51.94311 | -2.06922 | 1378 ft | 266 kts | 276° |
| 2026-05-04 21:49 | 51.95090 | -2.09658 | 1159 ft | 276 kts | 315° |
| 2026-05-04 21:49 | 51.96754 | -2.11098 | 1013 ft | 272 kts | 353° |
| 2026-05-04 21:49 | 51.98628 | -2.10954 | 873 ft | 270 kts | 6° |
| 2026-05-04 21:50 | 52.00504 | -2.10857 | 777 ft | 269 kts | 0° |
| 2026-05-04 21:50 | 52.02322 | -2.11405 | 727 ft | 267 kts | 336° |
| 2026-05-04 21:50 | 52.04025 | -2.12524 | 785 ft | 261 kts | 343° |
| 2026-05-04 21:50 | 52.05782 | -2.13095 | 848 ft | 256 kts | 355° |
| 2026-05-04 21:51 | 52.07553 | -2.13248 | 906 ft | 253 kts | 0° |
| 2026-05-04 21:51 | 52.09280 | -2.13139 | 938 ft | 252 kts | 4° |
| 2026-05-04 21:51 | 52.11044 | -2.12979 | 876 ft | 255 kts | 4° |
| 2026-05-04 21:51 | 52.12826 | -2.12823 | 780 ft | 258 kts | 4° |
| 2026-05-04 21:52 | 52.14609 | -2.13014 | 750 ft | 257 kts | 352° |
| 2026-05-04 21:52 | 52.16388 | -2.13411 | 710 ft | 258 kts | 353° |
| 2026-05-04 21:52 | 52.18156 | -2.13890 | 691 ft | 257 kts | 348° |
| 2026-05-04 21:52 | 52.19883 | -2.14574 | 748 ft | 254 kts | 345° |
| 2026-05-04 21:53 | 52.21552 | -2.15482 | 831 ft | 251 kts | 341° |
| 2026-05-04 21:53 | 52.23188 | -2.16463 | 938 ft | 250 kts | 337° |
| 2026-05-04 21:53 | 52.24702 | -2.17861 | 1022 ft | 251 kts | 325° |
| 2026-05-04 21:53 | 52.26038 | -2.19705 | 1064 ft | 253 kts | 320° |
| 2026-05-04 21:54 | 52.27435 | -2.21457 | 1055 ft | 253 kts | 326° |
| 2026-05-04 21:54 | 52.28883 | -2.23102 | 1109 ft | 252 kts | 323° |
| 2026-05-04 21:54 | 52.30152 | -2.25039 | 1293 ft | 248 kts | 312° |
| 2026-05-04 21:54 | 52.31148 | -2.27323 | 1454 ft | 246 kts | 301° |
| 2026-05-04 21:55 | 52.32013 | -2.29750 | 1474 ft | 249 kts | 302° |
| 2026-05-04 21:55 | 52.32902 | -2.32190 | 1474 ft | 251 kts | 302° |
| 2026-05-04 21:55 | 52.33837 | -2.34607 | 1501 ft | 252 kts | 304° |
| 2026-05-04 21:55 | 52.34821 | -2.36980 | 1523 ft | 252 kts | 308° |
| 2026-05-04 21:56 | 52.36102 | -2.38890 | 1549 ft | 249 kts | 329° |
| 2026-05-04 21:56 | 52.37594 | -2.40330 | 1575 ft | 250 kts | 331° |
| 2026-05-04 21:56 | 52.39122 | -2.41715 | 1573 ft | 251 kts | 332° |
| 2026-05-04 21:56 | 52.40670 | -2.43044 | 1580 ft | 252 kts | 334° |
| 2026-05-04 21:57 | 52.42241 | -2.44328 | 1586 ft | 253 kts | 335° |
| 2026-05-04 21:57 | 52.43829 | -2.45560 | 1585 ft | 253 kts | 336° |
| 2026-05-04 21:57 | 52.45437 | -2.46742 | 1594 ft | 253 kts | 337° |
| 2026-05-04 21:57 | 52.47060 | -2.47871 | 1593 ft | 253 kts | 338° |
| 2026-05-04 21:58 | 52.48698 | -2.48943 | 1596 ft | 253 kts | 341° |
| 2026-05-04 21:58 | 52.50347 | -2.49955 | 1603 ft | 252 kts | 341° |
| 2026-05-04 21:58 | 52.52024 | -2.50719 | 1623 ft | 250 kts | 354° |
| 2026-05-04 21:58 | 52.53747 | -2.50609 | 1681 ft | 246 kts | 8° |
| 2026-05-04 21:59 | 52.55393 | -2.50002 | 1743 ft | 245 kts | 17° |
| 2026-05-04 21:59 | 52.56969 | -2.48953 | 1784 ft | 245 kts | 23° |
| 2026-05-04 21:59 | 52.58527 | -2.47793 | 1771 ft | 247 kts | 22° |
| 2026-05-04 21:59 | 52.60175 | -2.47087 | 1797 ft | 246 kts | 2° |
| 2026-05-04 22:00 | 52.61877 | -2.47391 | 1751 ft | 249 kts | 349° |
| 2026-05-04 22:00 | 52.63600 | -2.47932 | 1593 ft | 255 kts | 349° |
| 2026-05-04 22:00 | 52.65356 | -2.48181 | 1611 ft | 252 kts | 2° |
| 2026-05-04 22:00 | 52.67072 | -2.47836 | 1749 ft | 246 kts | 7° |
| 2026-05-04 22:01 | 52.68761 | -2.47425 | 1861 ft | 244 kts | 8° |
| 2026-05-04 22:01 | 52.70433 | -2.47011 | 1961 ft | 243 kts | 8° |
| 2026-05-04 22:01 | 52.72114 | -2.46588 | 1995 ft | 245 kts | 8° |
| 2026-05-04 22:01 | 52.73806 | -2.46153 | 1989 ft | 247 kts | 8° |
| 2026-05-04 22:02 | 52.75510 | -2.45755 | 1956 ft | 248 kts | 5° |
| 2026-05-04 22:02 | 52.77242 | -2.45687 | 1923 ft | 250 kts | 357° |
| 2026-05-04 22:02 | 52.78975 | -2.46017 | 1889 ft | 251 kts | 349° |
| 2026-05-04 22:02 | 52.80677 | -2.46677 | 1868 ft | 251 kts | 347° |
| 2026-05-04 22:03 | 52.82390 | -2.47209 | 1895 ft | 249 kts | 351° |
| 2026-05-04 22:03 | 52.84111 | -2.47498 | 1920 ft | 248 kts | 356° |
| 2026-05-04 22:03 | 52.85840 | -2.47531 | 1944 ft | 248 kts | 1° |
| 2026-05-04 22:03 | 52.87561 | -2.47331 | 1952 ft | 249 kts | 4° |
| 2026-05-04 22:04 | 52.89290 | -2.47055 | 1931 ft | 250 kts | 5° |
| 2026-05-04 22:04 | 52.91025 | -2.46732 | 1908 ft | 251 kts | 6° |
| 2026-05-04 22:04 | 52.92765 | -2.46363 | 1891 ft | 252 kts | 7° |
| 2026-05-04 22:04 | 52.94502 | -2.45951 | 1859 ft | 252 kts | 7° |
| 2026-05-04 22:05 | 52.96237 | -2.45496 | 1841 ft | 252 kts | 8° |
| 2026-05-04 22:05 | 52.97965 | -2.44998 | 1816 ft | 252 kts | 9° |
| 2026-05-04 22:05 | 52.99110 | -2.44641 | 1803 ft | 253 kts | 9° |
| 2026-05-04 22:05 | 53.01421 | -2.43873 | 1781 ft | 253 kts | 8° |
| 2026-05-04 22:06 | 53.02575 | -2.43600 | 1768 ft | 253 kts | 5° |
| 2026-05-04 22:06 | 53.04907 | -2.43540 | 1744 ft | 253 kts | 355° |
| 2026-05-04 22:06 | 53.06647 | -2.43927 | 1722 ft | 252 kts | 348° |
| 2026-05-04 22:06 | 53.08363 | -2.44530 | 1691 ft | 252 kts | 346° |
| 2026-05-04 22:07 | 53.10079 | -2.45167 | 1693 ft | 252 kts | 348° |
| 2026-05-04 22:07 | 53.11803 | -2.45730 | 1697 ft | 253 kts | 349° |
| 2026-05-04 22:07 | 53.12972 | -2.46079 | 1692 ft | 253 kts | 350° |
| 2026-05-04 22:07 | 53.14709 | -2.46546 | 1682 ft | 253 kts | 351° |
| 2026-05-04 22:08 | 53.16443 | -2.47004 | 1676 ft | 252 kts | 349° |
| 2026-05-04 22:08 | 53.18166 | -2.47554 | 1668 ft | 252 kts | 345° |
| 2026-05-04 22:08 | 53.19801 | -2.48620 | 1641 ft | 253 kts | 332° |
| 2026-05-04 22:08 | 53.21286 | -2.50184 | 1610 ft | 253 kts | 325° |
| 2026-05-04 22:09 | 53.22599 | -2.52122 | 1621 ft | 252 kts | 310° |
| 2026-05-04 22:09 | 53.23492 | -2.54576 | 1656 ft | 252 kts | 298° |
| 2026-05-04 22:09 | 53.24337 | -2.57139 | 1622 ft | 251 kts | 301° |
| 2026-05-04 22:09 | 53.25259 | -2.59612 | 1583 ft | 250 kts | 304° |
| 2026-05-04 22:10 | 53.26250 | -2.62002 | 1571 ft | 250 kts | 306° |
| 2026-05-04 22:10 | 53.27257 | -2.64371 | 1553 ft | 250 kts | 306° |
| 2026-05-04 22:10 | 53.28245 | -2.66670 | 1511 ft | 232 kts | 307° |
| 2026-05-04 22:10 | 53.29173 | -2.68696 | 1404 ft | 208 kts | 309° |
| 2026-05-04 22:11 | 53.29984 | -2.70589 | 1270 ft | 206 kts | 306° |
| 2026-05-04 22:11 | 53.30870 | -2.72735 | 1261 ft | 226 kts | 305° |
| 2026-05-04 22:11 | 53.31714 | -2.74805 | 1245 ft | 218 kts | 305° |
| 2026-05-04 22:11 | 53.32550 | -2.76854 | 1197 ft | 202 kts | 304° |
| 2026-05-04 22:12 | 53.33132 | -2.78882 | 987 ft | 189 kts | 290° |
| 2026-05-04 22:12 | 53.33464 | -2.80986 | 660 ft | 184 kts | 279° |
| 2026-05-04 22:12 | 53.33419 | -2.83069 | 411 ft | 174 kts | 266° |
| 2026-05-04 22:12 | 53.33310 | -2.85068 | 315 ft | 189 kts | 266° |
| 2026-05-04 22:13 | 53.33166 | -2.87573 | 569 ft | 237 kts | 265° |
| 2026-05-04 22:13 | 53.33468 | -2.90365 | 967 ft | 259 kts | 297° |
| 2026-05-04 22:13 | 53.34475 | -2.93026 | 766 ft | 280 kts | 306° |
| 2026-05-04 22:13 | 53.35710 | -2.95539 | 578 ft | 281 kts | 314° |
| 2026-05-04 22:14 | 53.37251 | -2.97615 | 626 ft | 290 kts | 328° |
| 2026-05-04 22:14 | 53.38999 | -2.99259 | 664 ft | 286 kts | 330° |
| 2026-05-04 22:14 | 53.40763 | -3.00786 | 677 ft | 284 kts | 335° |
| 2026-05-04 22:14 | 53.42576 | -3.02030 | 792 ft | 279 kts | 338° |
| 2026-05-04 22:15 | 53.44365 | -3.03228 | 903 ft | 276 kts | 336° |
| 2026-05-04 22:15 | 53.46083 | -3.04607 | 1023 ft | 272 kts | 328° |
| 2026-05-04 22:15 | 53.47376 | -3.06842 | 1170 ft | 269 kts | 296° |
| 2026-05-04 22:15 | 53.47471 | -3.09917 | 1246 ft | 275 kts | 253° |
| 2026-05-04 22:16 | 53.46349 | -3.12525 | 1204 ft | 278 kts | 228° |
| 2026-05-04 22:16 | 53.45028 | -3.14922 | 1143 ft | 282 kts | 229° |
| 2026-05-04 22:16 | 53.43645 | -3.17281 | 1123 ft | 286 kts | 226° |
| 2026-05-04 22:16 | 53.42172 | -3.19547 | 1095 ft | 289 kts | 223° |
| 2026-05-04 22:17 | 53.40623 | -3.21706 | 1064 ft | 290 kts | 220° |
| 2026-05-04 22:17 | 53.39033 | -3.23794 | 1041 ft | 292 kts | 219° |
| 2026-05-04 22:17 | 53.37403 | -3.25831 | 1023 ft | 293 kts | 218° |
| 2026-05-04 22:17 | 53.35738 | -3.27809 | 1010 ft | 294 kts | 216° |
| 2026-05-04 22:18 | 53.34044 | -3.29721 | 983 ft | 294 kts | 215° |
| 2026-05-04 22:18 | 53.32327 | -3.31570 | 1071 ft | 291 kts | 215° |
| 2026-05-04 22:18 | 53.30752 | -3.33626 | 1252 ft | 285 kts | 225° |
| 2026-05-04 22:18 | 53.29300 | -3.35821 | 1519 ft | 279 kts | 224° |
| 2026-05-04 22:19 | 53.27818 | -3.37886 | 1797 ft | 276 kts | 221° |
| 2026-05-04 22:19 | 53.26293 | -3.39809 | 2064 ft | 274 kts | 218° |
| 2026-05-04 22:19 | 53.24735 | -3.41641 | 2308 ft | 274 kts | 218° |
| 2026-05-04 22:19 | 53.23196 | -3.43539 | 2578 ft | 276 kts | 220° |
| 2026-05-04 22:20 | 53.21685 | -3.45530 | 2840 ft | 277 kts | 221° |
| 2026-05-04 22:20 | 53.20207 | -3.47607 | 3100 ft | 278 kts | 223° |
| 2026-05-04 22:20 | 53.18744 | -3.49723 | 3325 ft | 279 kts | 223° |
| 2026-05-04 22:20 | 53.17308 | -3.51839 | 3563 ft | 279 kts | 223° |
| 2026-05-04 22:21 | 53.15865 | -3.54014 | 3790 ft | 280 kts | 224° |
| 2026-05-04 22:21 | 53.14434 | -3.56223 | 4028 ft | 281 kts | 225° |
| 2026-05-04 22:21 | 53.13013 | -3.58468 | 4264 ft | 282 kts | 225° |
| 2026-05-04 22:21 | 53.11601 | -3.60752 | 4474 ft | 284 kts | 226° |
| 2026-05-04 22:22 | 53.10104 | -3.63027 | 4283 ft | 299 kts | 220° |
| 2026-05-04 22:22 | 53.08408 | -3.65150 | 4034 ft | 310 kts | 218° |
| 2026-05-04 22:22 | 53.06661 | -3.67333 | 3775 ft | 319 kts | 218° |
| 2026-05-04 22:22 | 53.04880 | -3.69569 | 3500 ft | 316 kts | 218° |
| 2026-05-04 22:23 | 53.03173 | -3.71718 | 3224 ft | 301 kts | 218° |
| 2026-05-04 22:23 | 53.01565 | -3.73816 | 2962 ft | 288 kts | 221° |
| 2026-05-04 22:23 | 53.00093 | -3.75983 | 2718 ft | 277 kts | 225° |
| 2026-05-04 22:23 | 52.98830 | -3.78293 | 2529 ft | 263 kts | 243° |
| 2026-05-04 22:24 | 52.98236 | -3.81029 | 2610 ft | 245 kts | 251° |
| 2026-05-04 22:24 | 52.97549 | -3.83582 | 2545 ft | 241 kts | 248° |
| 2026-05-04 22:24 | 52.96891 | -3.86131 | 2374 ft | 240 kts | 251° |
| 2026-05-04 22:24 | 52.96311 | -3.88712 | 2191 ft | 238 kts | 253° |
| 2026-05-04 22:25 | 52.95816 | -3.91326 | 2037 ft | 238 kts | 256° |
| 2026-05-04 22:25 | 52.95406 | -3.93982 | 1865 ft | 237 kts | 259° |
| 2026-05-04 22:25 | 52.94419 | -3.95909 | 1897 ft | 236 kts | 195° |
| 2026-05-04 22:25 | 52.92774 | -3.95620 | 2221 ft | 247 kts | 153° |
| 2026-05-04 22:26 | 52.91126 | -3.94485 | 2209 ft | 266 kts | 162° |
| 2026-05-04 22:26 | 52.89330 | -3.93697 | 2167 ft | 266 kts | 153° |
| 2026-05-04 22:26 | 52.87594 | -3.92549 | 1997 ft | 274 kts | 160° |
| 2026-05-04 22:26 | 52.85764 | -3.91656 | 1784 ft | 281 kts | 163° |
| 2026-05-04 22:27 | 52.83862 | -3.90798 | 1558 ft | 286 kts | 162° |
| 2026-05-04 22:27 | 52.81958 | -3.89801 | 1353 ft | 288 kts | 161° |
| 2026-05-04 22:27 | 52.80024 | -3.88890 | 1210 ft | 290 kts | 165° |
| 2026-05-04 22:27 | 52.78058 | -3.88264 | 1099 ft | 283 kts | 182° |
| 2026-05-04 22:28 | 52.76363 | -3.89363 | 1122 ft | 245 kts | 199° |
| 2026-05-04 22:28 | 52.74935 | -3.88886 | 1355 ft | 198 kts | 128° |
| 2026-05-04 22:28 | 52.74409 | -3.86711 | 1663 ft | 213 kts | 102° |
| 2026-05-04 22:28 | 52.74050 | -3.84251 | 1728 ft | 230 kts | 117° |
| 2026-05-04 22:29 | 52.72688 | -3.83040 | 1964 ft | 243 kts | 187° |
| 2026-05-04 22:29 | 52.71042 | -3.84025 | 1708 ft | 260 kts | 210° |
| 2026-05-04 22:29 | 52.69661 | -3.86062 | 1395 ft | 274 kts | 224° |
| 2026-05-04 22:29 | 52.68269 | -3.88322 | 1063 ft | 286 kts | 226° |
| 2026-05-04 22:30 | 52.66884 | -3.90746 | 736 ft | 295 kts | 228° |
| 2026-05-04 22:30 | 52.65557 | -3.93262 | 639 ft | 284 kts | 230° |
| 2026-05-04 22:30 | 52.64340 | -3.95727 | 627 ft | 270 kts | 230° |
| 2026-05-04 22:30 | 52.63231 | -3.98108 | 686 ft | 257 kts | 235° |
| 2026-05-04 22:31 | 52.62176 | -4.00463 | 689 ft | 253 kts | 234° |
| 2026-05-04 22:31 | 52.61171 | -4.02823 | 701 ft | 252 kts | 238° |
| 2026-05-04 22:31 | 52.60164 | -4.05288 | 763 ft | 269 kts | 237° |
| 2026-05-04 22:31 | 52.58777 | -4.07283 | 1067 ft | 280 kts | 197° |
| 2026-05-04 22:32 | 52.56757 | -4.07373 | 1158 ft | 305 kts | 174° |
| 2026-05-04 22:32 | 52.54656 | -4.06599 | 1173 ft | 303 kts | 142° |
| 2026-05-04 22:32 | 52.54034 | -4.03874 | 1440 ft | 254 kts | 77° |
| 2026-05-04 22:32 | 52.54449 | -4.00957 | 1346 ft | 275 kts | 74° |
| 2026-05-04 22:33 | 52.54890 | -3.97825 | 1276 ft | 287 kts | 77° |
| 2026-05-04 22:33 | 52.55316 | -3.94557 | 1180 ft | 297 kts | 77° |
| 2026-05-04 22:33 | 52.55976 | -3.91353 | 1176 ft | 303 kts | 49° |
| 2026-05-04 22:33 | 52.57443 | -3.89104 | 1061 ft | 271 kts | 44° |
| 2026-05-04 22:34 | 52.58832 | -3.86868 | 996 ft | 292 kts | 46° |
| 2026-05-04 22:34 | 52.59899 | -3.83963 | 983 ft | 294 kts | 64° |
| 2026-05-04 22:34 | 52.60689 | -3.80927 | 953 ft | 288 kts | 64° |
| 2026-05-04 22:34 | 52.61573 | -3.77831 | 951 ft | 311 kts | 66° |
| 2026-05-04 22:35 | 52.62314 | -3.74509 | 1057 ft | 306 kts | 82° |
| 2026-05-04 22:35 | 52.61908 | -3.71177 | 1379 ft | 296 kts | 106° |
| 2026-05-04 22:35 | 52.61365 | -3.67953 | 1291 ft | 287 kts | 95° |
| 2026-05-04 22:35 | 52.61375 | -3.64742 | 1163 ft | 284 kts | 103° |
| 2026-05-04 22:36 | 52.60609 | -3.61734 | 1207 ft | 282 kts | 116° |
| 2026-05-04 22:36 | 52.59642 | -3.58974 | 1200 ft | 278 kts | 121° |
| 2026-05-04 22:36 | 52.58266 | -3.56724 | 1218 ft | 282 kts | 135° |
| 2026-05-04 22:36 | 52.56847 | -3.54540 | 1215 ft | 282 kts | 147° |
| 2026-05-04 22:37 | 52.55347 | -3.52458 | 1377 ft | 292 kts | 120° |
| 2026-05-04 22:37 | 52.54822 | -3.49207 | 1153 ft | 291 kts | 103° |
| 2026-05-04 22:37 | 52.53634 | -3.46684 | 1328 ft | 277 kts | 132° |
| 2026-05-04 22:37 | 52.52362 | -3.44425 | 1679 ft | 260 kts | 132° |
| 2026-05-04 22:38 | 52.51122 | -3.42372 | 2159 ft | 247 kts | 134° |
| 2026-05-04 22:38 | 52.49892 | -3.40525 | 2594 ft | 239 kts | 137° |
| 2026-05-04 22:38 | 52.48629 | -3.38811 | 3005 ft | 234 kts | 140° |
| 2026-05-04 22:38 | 52.47326 | -3.37232 | 3432 ft | 234 kts | 142° |
| 2026-05-04 22:39 | 52.45930 | -3.35550 | 3873 ft | 262 kts | 141° |
| 2026-05-04 22:39 | 52.44578 | -3.33368 | 4468 ft | 282 kts | 131° |
| 2026-05-04 22:39 | 52.43269 | -3.30894 | 5013 ft | 291 kts | 129° |
| 2026-05-04 22:39 | 52.41990 | -3.28282 | 5176 ft | 295 kts | 127° |
| 2026-05-04 22:40 | 52.40742 | -3.25610 | 4981 ft | 296 kts | 126° |
| 2026-05-04 22:40 | 52.39511 | -3.22918 | 4461 ft | 293 kts | 126° |
| 2026-05-04 22:40 | 52.38305 | -3.20271 | 4095 ft | 287 kts | 126° |
| 2026-05-04 22:40 | 52.37112 | -3.17665 | 4022 ft | 285 kts | 126° |
| 2026-05-04 22:41 | 52.35919 | -3.15074 | 4024 ft | 285 kts | 126° |
| 2026-05-04 22:41 | 52.34722 | -3.12491 | 4023 ft | 285 kts | 126° |
| 2026-05-04 22:41 | 52.33516 | -3.09901 | 4021 ft | 286 kts | 126° |
| 2026-05-04 22:41 | 52.32310 | -3.07318 | 4021 ft | 286 kts | 126° |
| 2026-05-04 22:42 | 52.31118 | -3.04770 | 4020 ft | 286 kts | 126° |
| 2026-05-04 22:42 | 52.29907 | -3.02187 | 4018 ft | 286 kts | 127° |
| 2026-05-04 22:42 | 52.28694 | -2.99610 | 3985 ft | 286 kts | 127° |
| 2026-05-04 22:42 | 52.27481 | -2.97045 | 3924 ft | 285 kts | 127° |
| 2026-05-04 22:43 | 52.26190 | -2.94568 | 3823 ft | 288 kts | 132° |
| 2026-05-04 22:43 | 52.24686 | -2.92403 | 3709 ft | 289 kts | 143° |
| 2026-05-04 22:43 | 52.22960 | -2.90688 | 3510 ft | 292 kts | 149° |
| 2026-05-04 22:43 | 52.21200 | -2.89057 | 3533 ft | 288 kts | 149° |
| 2026-05-04 22:44 | 52.19466 | -2.87471 | 3601 ft | 284 kts | 149° |
| 2026-05-04 22:44 | 52.17724 | -2.85935 | 3544 ft | 285 kts | 151° |
| 2026-05-04 22:44 | 52.15942 | -2.84478 | 3416 ft | 288 kts | 153° |
| 2026-05-04 22:44 | 52.14103 | -2.83163 | 3340 ft | 289 kts | 156° |
| 2026-05-04 22:45 | 52.12320 | -2.81669 | 3121 ft | 292 kts | 143° |
| 2026-05-04 22:45 | 52.11101 | -2.80201 | 2307 ft | 0 kts | 139° |
| 2026-05-04 22:45 | 52.11086 | -2.80180 | 2219 ft | 28 kts | 138° |
| 2026-05-04 22:46 | 52.10961 | -2.79998 | 3307 ft | 60 kts | 117° |
| 2026-05-04 22:46 | 52.10774 | -2.79581 | 3204 ft | 0 kts | 122° |
| 2026-05-04 22:47 | 52.09999 | -2.77686 | 2771 ft | 249 kts | 122° |
| 2026-05-04 22:47 | 52.08964 | -2.75204 | 2994 ft | 285 kts | 123° |
| 2026-05-04 22:47 | 52.07788 | -2.72428 | 3266 ft | 310 kts | 123° |
| 2026-05-04 22:47 | 52.06534 | -2.69526 | 3509 ft | 303 kts | 124° |
| 2026-05-04 22:48 | 52.05393 | -2.66867 | 3608 ft | 273 kts | 120° |
| 2026-05-04 22:48 | 52.04456 | -2.64247 | 3502 ft | 268 kts | 118° |
| 2026-05-04 22:48 | 52.03545 | -2.61554 | 3823 ft | 278 kts | 117° |
| 2026-05-04 22:48 | 52.02646 | -2.58800 | 3978 ft | 272 kts | 116° |
| 2026-05-04 22:49 | 52.01786 | -2.56114 | 3997 ft | 266 kts | 116° |
| 2026-05-04 22:49 | 52.00945 | -2.53458 | 3995 ft | 264 kts | 115° |
| 2026-05-04 22:49 | 52.00109 | -2.50814 | 3993 ft | 263 kts | 115° |
| 2026-05-04 22:49 | 51.99273 | -2.48173 | 3992 ft | 263 kts | 115° |
| 2026-05-04 22:50 | 51.98438 | -2.45541 | 3994 ft | 263 kts | 115° |
| 2026-05-04 22:50 | 51.97597 | -2.42903 | 3997 ft | 264 kts | 115° |
| 2026-05-04 22:50 | 51.96751 | -2.40256 | 3992 ft | 265 kts | 115° |
| 2026-05-04 22:50 | 51.95902 | -2.37608 | 3992 ft | 265 kts | 115° |
| 2026-05-04 22:51 | 51.95053 | -2.34962 | 3993 ft | 265 kts | 115° |
| 2026-05-04 22:51 | 51.94201 | -2.32311 | 3962 ft | 266 kts | 115° |
| 2026-05-04 22:51 | 51.93346 | -2.29654 | 3716 ft | 265 kts | 116° |
| 2026-05-04 22:51 | 51.92495 | -2.27015 | 3479 ft | 264 kts | 115° |
| 2026-05-04 22:52 | 51.91648 | -2.24392 | 3215 ft | 261 kts | 116° |
| 2026-05-04 22:52 | 51.90809 | -2.21791 | 2985 ft | 259 kts | 116° |
| 2026-05-04 22:52 | 51.89978 | -2.19218 | 2939 ft | 258 kts | 116° |
| 2026-05-04 22:52 | 51.89207 | -2.16598 | 2955 ft | 258 kts | 111° |
| 2026-05-04 22:53 | 51.88509 | -2.13927 | 2948 ft | 258 kts | 110° |
| 2026-05-04 22:53 | 51.87828 | -2.11248 | 2939 ft | 258 kts | 110° |
| 2026-05-04 22:53 | 51.87152 | -2.08560 | 2939 ft | 258 kts | 110° |
| 2026-05-04 22:53 | 51.86479 | -2.05879 | 2938 ft | 257 kts | 110° |
| 2026-05-04 22:54 | 51.85807 | -2.03194 | 2939 ft | 258 kts | 110° |
| 2026-05-04 22:54 | 51.85131 | -2.00502 | 2946 ft | 259 kts | 110° |
| 2026-05-04 22:54 | 51.84456 | -1.97815 | 2936 ft | 258 kts | 110° |
| 2026-05-04 22:54 | 51.83781 | -1.95125 | 2902 ft | 258 kts | 110° |
| 2026-05-04 22:55 | 51.83124 | -1.92510 | 2806 ft | 245 kts | 110° |
| 2026-05-04 22:55 | 51.82501 | -1.90027 | 2787 ft | 233 kts | 110° |
| 2026-05-04 22:55 | 51.81899 | -1.87626 | 2769 ft | 228 kts | 110° |
| 2026-05-04 22:55 | 51.81301 | -1.85247 | 2778 ft | 228 kts | 110° |
| 2026-05-04 22:56 | 51.80704 | -1.82880 | 2793 ft | 227 kts | 110° |
| 2026-05-04 22:56 | 51.80106 | -1.80510 | 2777 ft | 228 kts | 110° |
| 2026-05-04 22:56 | 51.79507 | -1.78140 | 2797 ft | 228 kts | 109° |
| 2026-05-04 22:56 | 51.78918 | -1.75811 | 2792 ft | 227 kts | 110° |
| 2026-05-04 22:57 | 51.78321 | -1.73458 | 2784 ft | 226 kts | 110° |
| 2026-05-04 22:57 | 51.77717 | -1.71077 | 2774 ft | 226 kts | 110° |
| 2026-05-04 22:57 | 51.77121 | -1.68726 | 2785 ft | 226 kts | 110° |
| 2026-05-04 22:57 | 51.76524 | -1.66379 | 2785 ft | 226 kts | 110° |
| 2026-05-04 22:58 | 51.75936 | -1.64064 | 2774 ft | 226 kts | 110° |
| 2026-05-04 22:58 | 51.75352 | -1.61703 | 2793 ft | 226 kts | 108° |
| 2026-05-04 22:58 | 51.74925 | -1.59282 | 2781 ft | 224 kts | 99° |
| 2026-05-04 22:58 | 51.74678 | -1.56797 | 2775 ft | 224 kts | 95° |
| 2026-05-04 22:59 | 51.74483 | -1.54302 | 2786 ft | 224 kts | 95° |
| 2026-05-04 22:59 | 51.74296 | -1.51818 | 2786 ft | 223 kts | 95° |
| 2026-05-04 22:59 | 51.74108 | -1.49319 | 2774 ft | 224 kts | 95° |
| 2026-05-04 22:59 | 51.73919 | -1.46830 | 2778 ft | 224 kts | 95° |
| 2026-05-04 23:00 | 51.73732 | -1.44336 | 2714 ft | 225 kts | 95° |
| 2026-05-04 23:00 | 51.73552 | -1.41869 | 2541 ft | 213 kts | 95° |
| 2026-05-04 23:00 | 51.73387 | -1.39615 | 2346 ft | 194 kts | 94° |
| 2026-05-04 23:00 | 51.73235 | -1.37505 | 2275 ft | 187 kts | 94° |
| 2026-05-04 23:01 | 51.73161 | -1.35432 | 2282 ft | 184 kts | 84° |
| 2026-05-04 23:01 | 51.73469 | -1.33462 | 2282 ft | 180 kts | 63° |
| 2026-05-04 23:01 | 51.74234 | -1.31883 | 2280 ft | 179 kts | 39° |
| 2026-05-04 23:01 | 51.75336 | -1.30967 | 2282 ft | 181 kts | 16° |
| 2026-05-04 23:02 | 51.76562 | -1.30869 | 2277 ft | 177 kts | 352° |
| 2026-05-04 23:02 | 51.77694 | -1.31588 | 2273 ft | 175 kts | 329° |
| 2026-05-04 23:02 | 51.78549 | -1.32974 | 2275 ft | 176 kts | 306° |
| 2026-05-04 23:02 | 51.78993 | -1.34829 | 2280 ft | 180 kts | 281° |
| 2026-05-04 23:03 | 51.78933 | -1.36855 | 2282 ft | 182 kts | 258° |
| 2026-05-04 23:03 | 51.78566 | -1.38829 | 2278 ft | 183 kts | 254° |
| 2026-05-04 23:03 | 51.78195 | -1.40801 | 2266 ft | 184 kts | 255° |
| 2026-05-04 23:03 | 51.77847 | -1.42735 | 2067 ft | 170 kts | 255° |
| 2026-05-04 23:04 | 51.77531 | -1.44487 | 1821 ft | 157 kts | 255° |
| 2026-05-04 23:04 | 51.77225 | -1.46155 | 1598 ft | 154 kts | 254° |
| 2026-05-04 23:04 | 51.76923 | -1.47803 | 1392 ft | 152 kts | 254° |
| 2026-05-04 23:04 | 51.76624 | -1.49431 | 1173 ft | 151 kts | 254° |
| 2026-05-04 23:05 | 51.76330 | -1.51036 | 961 ft | 147 kts | 255° |
| 2026-05-04 23:05 | 51.76042 | -1.52608 | 761 ft | 145 kts | 255° |
| 2026-05-04 23:05 | 51.75757 | -1.54161 | 574 ft | 144 kts | 256° |
| 2026-05-04 23:05 | 51.75468 | -1.55700 | 332 ft | 144 kts | 255° |
| 2026-05-04 23:06 | 51.75185 | -1.57232 | 274 ft | 135 kts | 255° |
| 2026-05-04 23:06 | 51.75058 | -1.57957 | 275 ft | 10 kts | 253° |
| 2026-05-04 23:06 | 51.75053 | -1.57983 | 275 ft | 20 kts | 253° |
| 2026-05-04 23:06 | 51.74918 | -1.58764 | 277 ft | 120 kts | 255° |
| 2026-05-04 23:07 | 51.74641 | -1.60371 | 590 ft | 170 kts | 253° |
| 2026-05-04 23:07 | 51.74218 | -1.62315 | 961 ft | 189 kts | 250° |
| 2026-05-04 23:07 | 51.73756 | -1.64344 | 1091 ft | 198 kts | 250° |
| 2026-05-04 23:07 | 51.73266 | -1.66485 | 1194 ft | 209 kts | 250° |
| 2026-05-04 23:08 | 51.72753 | -1.68749 | 1326 ft | 220 kts | 250° |
| 2026-05-04 23:08 | 51.72224 | -1.71101 | 1635 ft | 223 kts | 250° |
| 2026-05-04 23:08 | 51.71698 | -1.73432 | 2119 ft | 220 kts | 251° |
| 2026-05-04 23:08 | 51.71492 | -1.75872 | 2583 ft | 226 kts | 280° |
| 2026-05-04 23:09 | 51.72110 | -1.78180 | 2778 ft | 227 kts | 312° |
| 2026-05-04 23:09 | 51.73286 | -1.79842 | 2777 ft | 224 kts | 328° |
| 2026-05-04 23:09 | 51.74738 | -1.80447 | 2772 ft | 218 kts | 8° |
| 2026-05-04 23:09 | 51.76047 | -1.79346 | 2776 ft | 217 kts | 48° |
| 2026-05-04 23:10 | 51.76574 | -1.77132 | 2772 ft | 221 kts | 89° |
| 2026-05-04 23:10 | 51.76219 | -1.74706 | 2780 ft | 225 kts | 105° |
| 2026-05-04 23:10 | 51.75881 | -1.72248 | 2773 ft | 224 kts | 97° |
| 2026-05-04 23:10 | 51.75641 | -1.69759 | 2766 ft | 224 kts | 96° |
| 2026-05-04 23:11 | 51.75400 | -1.67274 | 2766 ft | 224 kts | 97° |
| 2026-05-04 23:11 | 51.75147 | -1.64788 | 2768 ft | 225 kts | 97° |
| 2026-05-04 23:11 | 51.74891 | -1.62297 | 2767 ft | 225 kts | 97° |
| 2026-05-04 23:11 | 51.74616 | -1.59817 | 2772 ft | 225 kts | 99° |
| 2026-05-04 23:12 | 51.74319 | -1.57337 | 2768 ft | 225 kts | 100° |
| 2026-05-04 23:12 | 51.74063 | -1.54862 | 2768 ft | 224 kts | 91° |
| 2026-05-04 23:12 | 51.73971 | -1.52355 | 2770 ft | 224 kts | 91° |
| 2026-05-04 23:12 | 51.73896 | -1.49841 | 2770 ft | 224 kts | 91° |
| 2026-05-04 23:13 | 51.73820 | -1.47337 | 2768 ft | 224 kts | 91° |
| 2026-05-04 23:13 | 51.73725 | -1.44842 | 2747 ft | 216 kts | 93° |
| 2026-05-04 23:13 | 51.73583 | -1.42511 | 2409 ft | 208 kts | 94° |
| 2026-05-04 23:13 | 51.73422 | -1.40139 | 2285 ft | 216 kts | 94° |
| 2026-05-04 23:14 | 51.73252 | -1.37705 | 2277 ft | 220 kts | 95° |
| 2026-05-04 23:14 | 51.73183 | -1.35242 | 2280 ft | 220 kts | 82° |
| 2026-05-04 23:14 | 51.73655 | -1.32975 | 2277 ft | 215 kts | 56° |
| 2026-05-04 23:14 | 51.74662 | -1.31445 | 2263 ft | 190 kts | 29° |
| 2026-05-04 23:15 | 51.75891 | -1.30850 | 2276 ft | 184 kts | 5° |
| 2026-05-04 23:15 | 51.77155 | -1.31152 | 2276 ft | 185 kts | 340° |
| 2026-05-04 23:15 | 51.78226 | -1.32311 | 2286 ft | 189 kts | 315° |
| 2026-05-04 23:15 | 51.78893 | -1.34140 | 2281 ft | 193 kts | 289° |
| 2026-05-04 23:16 | 51.79003 | -1.36283 | 2275 ft | 189 kts | 264° |
| 2026-05-04 23:16 | 51.78684 | -1.38263 | 2263 ft | 178 kts | 253° |
| 2026-05-04 23:16 | 51.78318 | -1.40144 | 2275 ft | 175 kts | 255° |
| 2026-05-04 23:16 | 51.77976 | -1.42026 | 2147 ft | 175 kts | 256° |
| 2026-05-04 23:17 | 51.77636 | -1.43916 | 1915 ft | 175 kts | 255° |
| 2026-05-04 23:17 | 51.77299 | -1.45757 | 1678 ft | 165 kts | 254° |
| 2026-05-04 23:17 | 51.76980 | -1.47492 | 1422 ft | 158 kts | 255° |
| 2026-05-04 23:17 | 51.76672 | -1.49174 | 1200 ft | 155 kts | 254° |
| 2026-05-04 23:18 | 51.76369 | -1.50826 | 993 ft | 151 kts | 255° |
| 2026-05-04 23:18 | 51.76076 | -1.52426 | 784 ft | 147 kts | 255° |
| 2026-05-04 23:18 | 51.75784 | -1.53991 | 628 ft | 150 kts | 252° |
| 2026-05-04 23:18 | 51.75436 | -1.55642 | 1218 ft | 162 kts | 255° |
| 2026-05-04 23:19 | 51.75074 | -1.57490 | 1769 ft | 185 kts | 251° |
| 2026-05-04 23:19 | 51.74554 | -1.59565 | 2386 ft | 210 kts | 246° |
| 2026-05-04 23:19 | 51.73986 | -1.61971 | 2741 ft | 253 kts | 254° |
| 2026-05-04 23:19 | 51.73475 | -1.64881 | 2790 ft | 285 kts | 256° |
| 2026-05-04 23:20 | 51.72971 | -1.67897 | 2774 ft | 272 kts | 256° |
| 2026-05-04 23:20 | 51.72484 | -1.70800 | 2772 ft | 262 kts | 256° |
| 2026-05-04 23:20 | 51.72023 | -1.73535 | 2769 ft | 244 kts | 256° |
| 2026-05-04 23:20 | 51.71804 | -1.76168 | 2772 ft | 233 kts | 279° |
| 2026-05-04 23:21 | 51.72409 | -1.78506 | 2776 ft | 226 kts | 312° |
| 2026-05-04 23:21 | 51.73679 | -1.79886 | 2790 ft | 221 kts | 345° |
| 2026-05-04 23:21 | 51.75181 | -1.79881 | 2773 ft | 218 kts | 19° |
| 2026-05-04 23:21 | 51.76409 | -1.78512 | 2785 ft | 218 kts | 52° |
| 2026-05-04 23:22 | 51.77134 | -1.76349 | 2774 ft | 221 kts | 66° |
| 2026-05-04 23:22 | 51.77474 | -1.73929 | 2773 ft | 223 kts | 86° |
| 2026-05-04 23:22 | 51.77270 | -1.71436 | 2777 ft | 226 kts | 102° |
| 2026-05-04 23:22 | 51.76829 | -1.68992 | 2778 ft | 227 kts | 105° |
| 2026-05-04 23:23 | 51.76327 | -1.66574 | 2777 ft | 227 kts | 107° |
| 2026-05-04 23:23 | 51.75809 | -1.64162 | 2777 ft | 227 kts | 107° |
| 2026-05-04 23:23 | 51.75309 | -1.61736 | 2778 ft | 227 kts | 104° |
| 2026-05-04 23:23 | 51.74927 | -1.59272 | 2786 ft | 226 kts | 99° |
| 2026-05-04 23:24 | 51.74680 | -1.56765 | 2778 ft | 226 kts | 96° |
| 2026-05-04 23:24 | 51.74482 | -1.54252 | 2789 ft | 226 kts | 95° |
| 2026-05-04 23:24 | 51.74295 | -1.51776 | 2790 ft | 225 kts | 95° |
| 2026-05-04 23:24 | 51.74107 | -1.49280 | 2814 ft | 223 kts | 95° |
| 2026-05-04 23:25 | 51.73914 | -1.46798 | 2823 ft | 223 kts | 95° |
| 2026-05-04 23:25 | 51.73708 | -1.44334 | 2710 ft | 214 kts | 96° |
| 2026-05-04 23:25 | 51.73478 | -1.41907 | 2535 ft | 223 kts | 97° |
| 2026-05-04 23:25 | 51.73200 | -1.39413 | 2408 ft | 227 kts | 99° |
| 2026-05-04 23:26 | 51.72894 | -1.36928 | 2423 ft | 224 kts | 98° |
| 2026-05-04 23:26 | 51.72921 | -1.34447 | 2377 ft | 222 kts | 73° |
| 2026-05-04 23:26 | 51.73645 | -1.32286 | 2306 ft | 221 kts | 45° |
| 2026-05-04 23:26 | 51.74982 | -1.31058 | 2127 ft | 225 kts | 17° |
| 2026-05-04 23:27 | 51.76525 | -1.30819 | 2118 ft | 225 kts | 353° |
| 2026-05-04 23:27 | 51.77937 | -1.31863 | 2062 ft | 228 kts | 315° |
| 2026-05-04 23:27 | 51.78626 | -1.34199 | 1723 ft | 245 kts | 280° |
| 2026-05-04 23:27 | 51.78631 | -1.36975 | 1558 ft | 246 kts | 262° |
| 2026-05-04 23:28 | 51.78112 | -1.39537 | 1657 ft | 235 kts | 247° |
| 2026-05-04 23:28 | 51.77594 | -1.41994 | 1784 ft | 224 kts | 257° |
| 2026-05-04 23:28 | 51.77240 | -1.44355 | 2031 ft | 212 kts | 258° |
| 2026-05-04 23:28 | 51.76914 | -1.46728 | 1767 ft | 224 kts | 258° |
| 2026-05-04 23:29 | 51.76567 | -1.49258 | 1395 ft | 233 kts | 258° |
| 2026-05-04 23:29 | 51.76200 | -1.51560 | 970 ft | 193 kts | 255° |
| 2026-05-04 23:29 | 51.75877 | -1.53402 | 646 ft | 155 kts | 255° |
| 2026-05-04 23:29 | 51.75592 | -1.54965 | 416 ft | 139 kts | 255° |
| 2026-05-04 23:30 | 51.75347 | -1.56364 | 279 ft | 117 kts | 256° |
| 2026-05-04 23:30 | 51.75208 | -1.57173 | 273 ft | 0 kts | 255° |
| 2026-05-04 23:33 | 51.75204 | -1.57197 | 273 ft | 22 kts | 255° |
| 2026-05-04 23:33 | 51.75058 | -1.58019 | 275 ft | 128 kts | 255° |
| 2026-05-04 23:33 | 51.74742 | -1.59772 | 529 ft | 183 kts | 254° |
| 2026-05-04 23:34 | 51.74350 | -1.61925 | 973 ft | 216 kts | 254° |
| 2026-05-04 23:34 | 51.73898 | -1.64347 | 1799 ft | 233 kts | 257° |
| 2026-05-04 23:34 | 51.73794 | -1.66990 | 2824 ft | 242 kts | 279° |
| 2026-05-04 23:34 | 51.74177 | -1.69727 | 3594 ft | 262 kts | 289° |
| 2026-05-04 23:35 | 51.74876 | -1.72608 | 3960 ft | 290 kts | 296° |
| 2026-05-04 23:35 | 51.75813 | -1.75632 | 4143 ft | 308 kts | 299° |
| 2026-05-04 23:35 | 51.76842 | -1.78657 | 4030 ft | 303 kts | 300° |
| 2026-05-04 23:35 | 51.77831 | -1.81507 | 3987 ft | 278 kts | 301° |
| 2026-05-04 23:36 | 51.78740 | -1.84148 | 3990 ft | 263 kts | 300° |
| 2026-05-04 23:36 | 51.79609 | -1.86724 | 3999 ft | 260 kts | 300° |
| 2026-05-04 23:36 | 51.80459 | -1.89294 | 4035 ft | 261 kts | 300° |
| 2026-05-04 23:36 | 51.81321 | -1.91945 | 4614 ft | 273 kts | 299° |
| 2026-05-04 23:37 | 51.82187 | -1.94646 | 5864 ft | 267 kts | 298° |
| 2026-05-04 23:37 | 51.83031 | -1.97301 | 7126 ft | 265 kts | 297° |
| 2026-05-04 23:37 | 51.83877 | -1.99969 | 8167 ft | 270 kts | 296° |
| 2026-05-04 23:37 | 51.84741 | -2.02695 | 8787 ft | 275 kts | 296° |
| 2026-05-04 23:38 | 51.85617 | -2.05463 | 9030 ft | 278 kts | 296° |
| 2026-05-04 23:38 | 51.86490 | -2.08224 | 9058 ft | 268 kts | 296° |
| 2026-05-04 23:38 | 51.87313 | -2.10823 | 9053 ft | 252 kts | 296° |
| 2026-05-04 23:38 | 51.88102 | -2.13314 | 9058 ft | 246 kts | 296° |
| 2026-05-04 23:39 | 51.88866 | -2.15746 | 9064 ft | 245 kts | 294° |
| 2026-05-04 23:39 | 51.89243 | -2.18388 | 9060 ft | 242 kts | 267° |
| 2026-05-04 23:39 | 51.88923 | -2.21049 | 9071 ft | 238 kts | 257° |
| 2026-05-04 23:39 | 51.88844 | -2.23666 | 9061 ft | 233 kts | 284° |
| 2026-05-04 23:40 | 51.89731 | -2.25793 | 9059 ft | 233 kts | 323° |
| 2026-05-04 23:40 | 51.91275 | -2.26509 | 9060 ft | 238 kts | 3° |
| 2026-05-04 23:40 | 51.92871 | -2.25753 | 9065 ft | 242 kts | 22° |
| 2026-05-04 23:40 | 51.94352 | -2.24434 | 9062 ft | 244 kts | 31° |
| 2026-05-04 23:41 | 51.95769 | -2.22916 | 9061 ft | 244 kts | 33° |
| 2026-05-04 23:41 | 51.97141 | -2.21404 | 9062 ft | 245 kts | 32° |
| 2026-05-04 23:41 | 51.98563 | -2.19884 | 9066 ft | 244 kts | 31° |
| 2026-05-04 23:41 | 51.99973 | -2.18345 | 9060 ft | 245 kts | 39° |
| 2026-05-04 23:42 | 52.01061 | -2.16232 | 9059 ft | 246 kts | 61° |
| 2026-05-04 23:42 | 52.01485 | -2.13567 | 9059 ft | 246 kts | 91° |
| 2026-05-04 23:42 | 52.01000 | -2.10952 | 9060 ft | 244 kts | 125° |
| 2026-05-04 23:42 | 51.99739 | -2.09199 | 9060 ft | 240 kts | 158° |
| 2026-05-04 23:43 | 51.98122 | -2.08804 | 9064 ft | 236 kts | 189° |
| 2026-05-04 23:43 | 51.96557 | -2.09560 | 9065 ft | 235 kts | 204° |
| 2026-05-04 23:43 | 51.95091 | -2.10733 | 9064 ft | 235 kts | 211° |
| 2026-05-04 23:43 | 51.93694 | -2.12095 | 9065 ft | 234 kts | 214° |
| 2026-05-04 23:44 | 51.92320 | -2.13523 | 9060 ft | 234 kts | 214° |
| 2026-05-04 23:44 | 51.90948 | -2.14949 | 9063 ft | 235 kts | 214° |
| 2026-05-04 23:44 | 51.89574 | -2.16370 | 9061 ft | 234 kts | 217° |
| 2026-05-04 23:44 | 51.88774 | -2.17529 | 9061 ft | 233 kts | 230° |
| 2026-05-04 23:45 | 51.87827 | -2.20606 | 9060 ft | 231 kts | 262° |
| 2026-05-04 23:45 | 51.87843 | -2.22316 | 9061 ft | 231 kts | 281° |
| 2026-05-04 23:45 | 51.88551 | -2.24612 | 9060 ft | 232 kts | 311° |
| 2026-05-04 23:45 | 51.89602 | -2.25807 | 9060 ft | 235 kts | 336° |
| 2026-05-04 23:46 | 51.91226 | -2.26112 | 9065 ft | 240 kts | 8° |
| 2026-05-04 23:46 | 51.92822 | -2.25294 | 9068 ft | 242 kts | 21° |
| 2026-05-04 23:46 | 51.94339 | -2.24076 | 9064 ft | 244 kts | 27° |
| 2026-05-04 23:46 | 51.95799 | -2.22677 | 9065 ft | 244 kts | 30° |
| 2026-05-04 23:47 | 51.97238 | -2.21218 | 9063 ft | 244 kts | 30° |
| 2026-05-04 23:47 | 51.98679 | -2.19755 | 9067 ft | 244 kts | 30° |
| 2026-05-04 23:47 | 52.00084 | -2.18213 | 9063 ft | 245 kts | 40° |
| 2026-05-04 23:47 | 52.01135 | -2.16045 | 9064 ft | 246 kts | 63° |
| 2026-05-04 23:48 | 52.01488 | -2.13355 | 9060 ft | 246 kts | 94° |
| 2026-05-04 23:48 | 52.00930 | -2.10779 | 9061 ft | 244 kts | 128° |
| 2026-05-04 23:48 | 51.99621 | -2.09118 | 9062 ft | 240 kts | 161° |
| 2026-05-04 23:48 | 51.97997 | -2.08836 | 9062 ft | 236 kts | 192° |
| 2026-05-04 23:49 | 51.96442 | -2.09639 | 9060 ft | 235 kts | 205° |
| 2026-05-04 23:49 | 51.94983 | -2.10832 | 9062 ft | 235 kts | 211° |
| 2026-05-04 23:49 | 51.93590 | -2.12201 | 9061 ft | 234 kts | 214° |
| 2026-05-04 23:49 | 51.92235 | -2.13612 | 9060 ft | 234 kts | 214° |
| 2026-05-04 23:50 | 51.90860 | -2.15040 | 9064 ft | 235 kts | 214° |
| 2026-05-04 23:50 | 51.89490 | -2.16470 | 9062 ft | 234 kts | 219° |
| 2026-05-04 23:50 | 51.88377 | -2.18359 | 9063 ft | 232 kts | 238° |
| 2026-05-04 23:50 | 51.87814 | -2.20770 | 9060 ft | 230 kts | 264° |
| 2026-05-04 23:51 | 51.88032 | -2.23308 | 9058 ft | 231 kts | 293° |
| 2026-05-04 23:51 | 51.89040 | -2.25306 | 9062 ft | 234 kts | 324° |
| 2026-05-04 23:51 | 51.90564 | -2.26222 | 9067 ft | 237 kts | 347° |
| 2026-05-04 23:51 | 51.92213 | -2.26481 | 8903 ft | 241 kts | 1° |
| 2026-05-04 23:52 | 51.93817 | -2.25720 | 8425 ft | 246 kts | 30° |
| 2026-05-04 23:52 | 51.94944 | -2.23645 | 7911 ft | 252 kts | 66° |
| 2026-05-04 23:52 | 51.95113 | -2.20846 | 7412 ft | 255 kts | 102° |
| 2026-05-04 23:52 | 51.94449 | -2.18194 | 7006 ft | 253 kts | 117° |
| 2026-05-04 23:53 | 51.93607 | -2.15701 | 6621 ft | 252 kts | 118° |
| 2026-05-04 23:53 | 51.92752 | -2.13237 | 6214 ft | 250 kts | 118° |
| 2026-05-04 23:53 | 51.91908 | -2.10777 | 5799 ft | 249 kts | 117° |
| 2026-05-04 23:53 | 51.91079 | -2.08327 | 5390 ft | 247 kts | 117° |
| 2026-05-04 23:54 | 51.90260 | -2.05889 | 4987 ft | 245 kts | 116° |
| 2026-05-04 23:54 | 51.89452 | -2.03469 | 4573 ft | 243 kts | 116° |
| 2026-05-04 23:54 | 51.88652 | -2.01067 | 4198 ft | 241 kts | 116° |
| 2026-05-04 23:54 | 51.87868 | -1.98715 | 4035 ft | 236 kts | 116° |
| 2026-05-04 23:55 | 51.87092 | -1.96388 | 4013 ft | 235 kts | 116° |
| 2026-05-04 23:55 | 51.86318 | -1.94064 | 4015 ft | 235 kts | 116° |
| 2026-05-04 23:55 | 51.84757 | -1.89384 | 3534 ft | 236 kts | 116° |
| 2026-05-04 23:56 | 51.83981 | -1.87061 | 3088 ft | 233 kts | 116° |
| 2026-05-04 23:56 | 51.83213 | -1.84765 | 2833 ft | 231 kts | 116° |
| 2026-05-04 23:56 | 51.82452 | -1.82487 | 2801 ft | 230 kts | 116° |
| 2026-05-04 23:56 | 51.81701 | -1.80245 | 2800 ft | 230 kts | 116° |
| 2026-05-04 23:57 | 51.80939 | -1.77971 | 2804 ft | 230 kts | 116° |
| 2026-05-04 23:57 | 51.80175 | -1.75695 | 2806 ft | 230 kts | 116° |
| 2026-05-04 23:57 | 51.79410 | -1.73421 | 2802 ft | 230 kts | 116° |
| 2026-05-04 23:57 | 51.78647 | -1.71150 | 2803 ft | 230 kts | 116° |
| 2026-05-04 23:58 | 51.77884 | -1.68883 | 2802 ft | 230 kts | 116° |
| 2026-05-04 23:58 | 51.77120 | -1.66615 | 2800 ft | 230 kts | 116° |
| 2026-05-04 23:58 | 51.76357 | -1.64348 | 2803 ft | 230 kts | 116° |
| 2026-05-04 23:58 | 51.75596 | -1.62088 | 2803 ft | 230 kts | 116° |
| 2026-05-04 23:59 | 51.74993 | -1.59712 | 2800 ft | 227 kts | 102° |
| 2026-05-04 23:59 | 51.74705 | -1.57208 | 2808 ft | 227 kts | 96° |
| 2026-05-04 23:59 | 51.74505 | -1.54685 | 2805 ft | 227 kts | 95° |
| 2026-05-04 23:59 | 51.74319 | -1.52167 | 2804 ft | 226 kts | 95° |
| 2026-05-05 00:00 | 51.74131 | -1.49638 | 2798 ft | 227 kts | 95° |
| 2026-05-05 00:00 | 51.74067 | -1.48785 | 2802 ft | 227 kts | 94° |
| 2026-05-05 00:00 | 51.73754 | -1.44634 | 2648 ft | 216 kts | 95° |
| 2026-05-05 00:00 | 51.73579 | -1.42235 | 2346 ft | 218 kts | 94° |
| 2026-05-05 00:01 | 51.73404 | -1.39773 | 2293 ft | 222 kts | 95° |
| 2026-05-05 00:01 | 51.73226 | -1.37284 | 2293 ft | 224 kts | 94° |
| 2026-05-05 00:01 | 51.73225 | -1.34792 | 2289 ft | 221 kts | 78° |
| 2026-05-05 00:01 | 51.73789 | -1.32694 | 2276 ft | 194 kts | 51° |
| 2026-05-05 00:02 | 51.74784 | -1.31347 | 2282 ft | 185 kts | 26° |
| 2026-05-05 00:02 | 51.76017 | -1.30835 | 2291 ft | 183 kts | 2° |
| 2026-05-05 00:02 | 51.77266 | -1.31223 | 2295 ft | 185 kts | 337° |
| 2026-05-05 00:02 | 51.78301 | -1.32445 | 2292 ft | 187 kts | 312° |
| 2026-05-05 00:03 | 51.78814 | -1.34355 | 2289 ft | 190 kts | 280° |
| 2026-05-05 00:03 | 51.78866 | -1.36501 | 2287 ft | 193 kts | 268° |
| 2026-05-05 00:03 | 51.78605 | -1.38626 | 2289 ft | 195 kts | 255° |
| 2026-05-05 00:03 | 51.78213 | -1.40719 | 2276 ft | 195 kts | 255° |
| 2026-05-05 00:04 | 51.77842 | -1.42766 | 2075 ft | 185 kts | 255° |
| 2026-05-05 00:04 | 51.77498 | -1.44657 | 1801 ft | 166 kts | 255° |
| 2026-05-05 00:04 | 51.77185 | -1.46369 | 1574 ft | 153 kts | 255° |
| 2026-05-05 00:04 | 51.76888 | -1.47992 | 1365 ft | 149 kts | 254° |
| 2026-05-05 00:05 | 51.76596 | -1.49585 | 1157 ft | 147 kts | 255° |
| 2026-05-05 00:05 | 51.76312 | -1.51134 | 952 ft | 141 kts | 255° |
| 2026-05-05 00:05 | 51.76039 | -1.52623 | 758 ft | 137 kts | 255° |
| 2026-05-05 00:05 | 51.75775 | -1.54063 | 580 ft | 135 kts | 255° |
| 2026-05-05 00:06 | 51.75508 | -1.55503 | 380 ft | 133 kts | 255° |
| 2026-05-05 00:06 | 51.75263 | -1.56879 | 271 ft | 108 kts | 254° |
| 2026-05-05 00:06 | 51.75138 | -1.57517 | 274 ft | 2 kts | 255° |
| 2026-05-05 00:06 | 51.75109 | -1.57695 | 277 ft | 29 kts | 255° |
| 2026-05-05 00:07 | 51.75057 | -1.57982 | 275 ft | 25 kts | 257° |
| 2026-05-05 00:07 | 51.75130 | -1.58067 | 274 ft | 15 kts | 25° |
| 2026-05-05 00:07 | 51.75210 | -1.57993 | 277 ft | 13 kts | 28° |
| 2026-05-05 00:07 | 51.75293 | -1.57925 | 275 ft | 14 kts | 26° |
| 2026-05-05 00:08 | 51.75379 | -1.57860 | 274 ft | 14 kts | 24° |
| 2026-05-05 00:08 | 51.75465 | -1.57791 | 273 ft | 14 kts | 27° |
| 2026-05-05 00:08 | 51.75553 | -1.57720 | 273 ft | 14 kts | 26° |
| 2026-05-05 00:08 | 51.75644 | -1.57649 | 273 ft | 15 kts | 26° |
| 2026-05-05 00:09 | 51.75736 | -1.57607 | 273 ft | 14 kts | 19° |
| 2026-05-05 00:09 | 51.75827 | -1.57556 | 273 ft | 14 kts | 19° |
| 2026-05-05 00:09 | 51.75918 | -1.57496 | 273 ft | 14 kts | 39° |
| 2026-05-05 00:09 | 51.75935 | -1.57361 | 273 ft | 13 kts | 94° |
| 2026-05-05 00:10 | 51.75923 | -1.57226 | 273 ft | 12 kts | 106° |
| 2026-05-05 00:10 | 51.75862 | -1.57061 | 273 ft | 25 kts | 167° |
| 2026-05-05 00:10 | 51.75722 | -1.57150 | 273 ft | 22 kts | 208° |
| 2026-05-05 00:10 | 51.75644 | -1.57201 | 273 ft | 10 kts | 199° |
| 2026-05-05 00:11 | 51.75599 | -1.57276 | 273 ft | 7 kts | 253° |
| 2026-05-05 00:11 | 51.75606 | -1.57334 | 273 ft | 3 kts | 290° |
| 2026-05-05 00:11 | 51.75607 | -1.57336 | 273 ft | 0 kts | 290° |